Time;durP1;ratioP1;P1;durP2;ratioP2;P2;SDS_P1;SDS_P2;PMS_P1;PMS_P2;Temp;Humidity;BMP_temperature;BMP_pressure;BME280_temperature;BME280_humidity;BME280_pressure;Samples;Min_cycle;Max_cycle;Signal;HPM_P1;HPM_P2
2022/09/22 00:00:54;;;;;;;0.00;0.00;;;;;;;;;;6245179;23;20034;-78
2022/09/22 00:03:21;;;;;;;0.00;0.00;;;;;;;;;;6245231;23;20011;-79
2022/09/22 00:05:47;;;;;;;0.38;0.38;;;;;;;;;;6246452;22;20023;-79
2022/09/22 00:08:14;;;;;;;0.00;0.00;;;;;;;;;;6246633;22;20003;-79
2022/09/22 00:10:40;;;;;;;0.10;0.10;;;;;;;;;;6244934;23;20012;-79
2022/09/22 00:13:06;;;;;;;0.00;0.00;;;;;;;;;;6244548;23;20090;-79
2022/09/22 00:15:33;;;;;;;0.00;0.00;;;;;;;;;;6244204;23;20012;-80
2022/09/22 00:18:00;;;;;;;0.22;0.22;;;;;;;;;;6246094;22;20344;-79
2022/09/22 00:20:26;;;;;;;0.50;0.50;;;;;;;;;;6243958;23;20321;-79
2022/09/22 00:22:52;;;;;;;0.10;0.10;;;;;;;;;;6245769;23;20089;-80
2022/09/22 00:25:19;;;;;;;0.00;0.00;;;;;;;;;;6244326;23;20028;-80
2022/09/22 00:27:45;;;;;;;0.08;0.08;;;;;;;;;;6243480;23;20004;-79
2022/09/22 00:30:12;;;;;;;0.00;0.00;;;;;;;;;;6245455;22;20000;-80
2022/09/22 00:32:39;;;;;;;6.35;1.17;;;;;;;;;;6245307;22;20449;-79
2022/09/22 00:35:06;;;;;;;1.17;1.17;;;;;;;;;;6245228;23;20028;-79
2022/09/22 00:37:33;;;;;;;3.92;1.58;;;;;;;;;;6245506;22;20035;-79
2022/09/22 00:39:59;;;;;;;0.00;0.00;;;;;;;;;;6243036;23;20070;-80
2022/09/22 00:42:25;;;;;;;0.10;0.10;;;;;;;;;;6247838;23;19996;-79
2022/09/22 00:44:52;;;;;;;0.00;0.00;;;;;;;;;;6246024;23;20369;-79
2022/09/22 00:47:24;;;;;;;0.00;0.00;;;;;;;;;;6245649;23;20435;-79
2022/09/22 00:49:55;;;;;;;0.00;0.00;;;;;;;;;;6244229;23;20004;-79
2022/09/22 00:52:24;;;;;;;1.38;1.38;;;;;;;;;;6243537;23;20023;-79
2022/09/22 00:54:52;;;;;;;0.00;0.00;;;;;;;;;;6243852;23;20372;-78
2022/09/22 00:57:24;;;;;;;0.98;0.98;;;;;;;;;;6243730;22;20012;-79
2022/09/22 00:59:51;;;;;;;4.50;1.17;;;;;;;;;;6243605;23;20043;-80
2022/09/22 01:02:18;;;;;;;10.20;3.22;;;;;;;;;;6245639;23;20000;-81
2022/09/22 01:04:45;;;;;;;7.43;5.68;;;;;;;;;;6243694;23;20004;-80
2022/09/22 01:07:12;;;;;;;3.53;3.35;;;;;;;;;;6245316;23;20000;-79
2022/09/22 01:09:39;;;;;;;0.95;0.95;;;;;;;;;;6244738;22;20327;-78
2022/09/22 01:12:05;;;;;;;0.95;0.75;;;;;;;;;;6243619;23;20000;-77
2022/09/22 01:14:50;;;;;;;0.93;0.93;;;;;;;;;;6245309;22;20007;-77
2022/09/22 01:17:31;;;;;;;0.43;0.40;;;;;;;;;;6243694;23;20032;-77
2022/09/22 01:19:57;;;;;;;1.60;1.50;;;;;;;;;;6245069;23;20079;-76
2022/09/22 01:22:45;;;;;;;0.80;0.80;;;;;;;;;;6245407;23;20004;-77
2022/09/22 01:25:30;;;;;;;0.00;0.00;;;;;;;;;;6243473;23;20130;-79
2022/09/22 01:28:15;;;;;;;0.00;0.00;;;;;;;;;;6245829;23;20009;-80
2022/09/22 01:30:49;;;;;;;1.08;1.08;;;;;;;;;;6245593;23;20034;-80
2022/09/22 01:33:15;;;;;;;0.08;0.08;;;;;;;;;;6245503;22;20004;-81
2022/09/22 01:35:49;;;;;;;0.00;0.00;;;;;;;;;;6245218;23;20027;-80
2022/09/22 01:38:21;;;;;;;4.10;3.90;;;;;;;;;;6245332;22;20011;-81
2022/09/22 01:40:53;;;;;;;0.00;0.00;;;;;;;;;;6243691;23;20004;-81
2022/09/22 01:43:20;;;;;;;0.00;0.00;;;;;;;;;;6245346;23;20072;-80
2022/09/22 01:45:47;;;;;;;0.00;0.00;;;;;;;;;;6245284;23;20024;-82
2022/09/22 01:48:19;;;;;;;0.00;0.00;;;;;;;;;;6245173;22;20019;-81
2022/09/22 01:50:49;;;;;;;0.00;0.00;;;;;;;;;;6245205;22;20042;-81
2022/09/22 01:53:17;;;;;;;0.08;0.08;;;;;;;;;;6244801;23;20011;-81
2022/09/22 01:55:53;;;;;;;0.00;0.00;;;;;;;;;;6245396;23;20008;-81
2022/09/22 01:58:21;;;;;;;0.00;0.00;;;;;;;;;;6244752;22;20012;-82
2022/09/22 02:00:51;;;;;;;0.00;0.00;;;;;;;;;;6244158;23;20000;-79
2022/09/22 02:03:27;;;;;;;0.17;0.17;;;;;;;;;;6243570;23;20083;-81
2022/09/22 02:06:05;;;;;;;1.45;0.90;;;;;;;;;;6244087;23;20079;-80
2022/09/22 02:08:34;;;;;;;0.00;0.00;;;;;;;;;;6243968;23;20008;-81
2022/09/22 02:11:02;;;;;;;0.10;0.10;;;;;;;;;;6243662;23;20012;-81
2022/09/22 02:13:29;;;;;;;0.00;0.00;;;;;;;;;;6245237;22;20305;-81
2022/09/22 02:16:01;;;;;;;0.00;0.00;;;;;;;;;;6245229;23;20050;-80
2022/09/22 02:18:37;;;;;;;0.98;0.98;;;;;;;;;;6245638;23;20030;-79
2022/09/22 02:21:03;;;;;;;0.00;0.00;;;;;;;;;;6254105;23;20007;-79
2022/09/22 02:23:31;;;;;;;0.00;0.00;;;;;;;;;;6254783;23;20298;-79
2022/09/22 02:26:00;;;;;;;0.70;0.70;;;;;;;;;;6248355;22;20004;-79
2022/09/22 02:28:27;;;;;;;0.05;0.05;;;;;;;;;;6245446;23;20431;-80
2022/09/22 02:30:55;;;;;;;0.08;0.08;;;;;;;;;;6243567;23;20015;-78
2022/09/22 02:33:23;;;;;;;1.13;1.13;;;;;;;;;;6244533;23;20019;-77
2022/09/22 02:35:54;;;;;;;0.00;0.00;;;;;;;;;;6246857;22;20008;-78
2022/09/22 02:38:23;;;;;;;0.08;0.08;;;;;;;;;;6246037;22;20012;-78
2022/09/22 02:41:19;;;;;;;0.10;0.10;;;;;;;;;;6243960;23;20004;-77
2022/09/22 02:43:55;;;;;;;0.10;0.10;;;;;;;;;;6203531;22;20000;-77
2022/09/22 02:46:24;;;;;;;0.00;0.00;;;;;;;;;;6247082;22;20324;-78
2022/09/22 02:49:00;;;;;;;0.00;0.00;;;;;;;;;;6245750;23;20000;-77
2022/09/22 02:51:28;;;;;;;0.00;0.00;;;;;;;;;;6245629;23;20046;-78
2022/09/22 02:53:55;;;;;;;0.00;0.00;;;;;;;;;;6245985;22;20055;-77
2022/09/22 02:56:21;;;;;;;0.00;0.00;;;;;;;;;;6243986;23;20011;-78
2022/09/22 02:58:48;;;;;;;0.00;0.00;;;;;;;;;;6245040;22;20506;-77
2022/09/22 03:01:14;;;;;;;0.00;0.00;;;;;;;;;;6242702;23;20320;-77
2022/09/22 03:03:40;;;;;;;0.00;0.00;;;;;;;;;;6242058;23;20461;-77
2022/09/22 03:06:07;;;;;;;0.00;0.00;;;;;;;;;;6243061;23;20004;-76
2022/09/22 03:08:33;;;;;;;0.00;0.00;;;;;;;;;;6241131;23;20086;-79
2022/09/22 03:11:00;;;;;;;6.07;3.17;;;;;;;;;;6242753;23;20008;-80
2022/09/22 03:13:26;;;;;;;6.35;2.58;;;;;;;;;;6239398;23;20079;-79
2022/09/22 03:15:52;;;;;;;3.75;3.45;;;;;;;;;;6242528;23;20011;-78
2022/09/22 03:18:19;;;;;;;1.38;1.33;;;;;;;;;;6240871;23;20477;-77
2022/09/22 03:20:45;;;;;;;0.08;0.08;;;;;;;;;;6241840;22;20011;-79
2022/09/22 03:23:12;;;;;;;1.63;1.55;;;;;;;;;;6240909;23;20011;-77
2022/09/22 03:25:38;;;;;;;0.30;0.30;;;;;;;;;;6241278;22;19996;-78
2022/09/22 03:28:05;;;;;;;0.80;0.80;;;;;;;;;;6240625;23;20001;-77
2022/09/22 03:30:31;;;;;;;0.45;0.45;;;;;;;;;;6243029;23;20008;-81
2022/09/22 03:32:58;;;;;;;2.35;2.17;;;;;;;;;;6243256;23;20008;-83
2022/09/22 03:35:25;;;;;;;3.50;2.45;;;;;;;;;;6246727;23;20000;-80
2022/09/22 03:37:51;;;;;;;0.22;0.22;;;;;;;;;;6241162;22;20005;-80
2022/09/22 03:40:17;;;;;;;0.13;0.13;;;;;;;;;;6243932;23;20091;-81
2022/09/22 03:42:44;;;;;;;0.00;0.00;;;;;;;;;;6245751;23;20063;-80
2022/09/22 03:45:14;;;;;;;0.00;0.00;;;;;;;;;;6244349;23;20075;-78
2022/09/22 03:47:41;;;;;;;0.00;0.00;;;;;;;;;;6243664;22;20030;-80
2022/09/22 03:50:11;;;;;;;0.50;0.47;;;;;;;;;;6244979;23;20058;-79
2022/09/22 03:52:38;;;;;;;1.25;0.43;;;;;;;;;;6244392;23;20000;-79
2022/09/22 03:55:05;;;;;;;24.30;3.25;;;;;;;;;;6243303;23;20031;-80
2022/09/22 03:57:31;;;;;;;17.83;2.70;;;;;;;;;;6245093;22;20339;-82
2022/09/22 03:59:58;;;;;;;0.25;0.25;;;;;;;;;;6250929;22;20043;-80
2022/09/22 04:02:24;;;;;;;0.17;0.17;;;;;;;;;;6245909;23;20000;-78
2022/09/22 04:04:51;;;;;;;0.00;0.00;;;;;;;;;;6245410;23;20047;-79
2022/09/22 04:07:17;;;;;;;0.40;0.40;;;;;;;;;;6246080;22;20000;-78
2022/09/22 04:09:43;;;;;;;0.00;0.00;;;;;;;;;;6249078;22;20029;-83
2022/09/22 04:12:10;;;;;;;1.08;1.08;;;;;;;;;;6243092;23;20004;-82
2022/09/22 04:14:37;;;;;;;1.08;0.65;;;;;;;;;;6241767;22;20035;-78
2022/09/22 04:17:04;;;;;;;1.13;0.82;;;;;;;;;;6240453;22;20007;-77
2022/09/22 04:19:34;;;;;;;0.20;0.20;;;;;;;;;;6236500;23;20000;-80
2022/09/22 04:22:01;;;;;;;0.57;0.57;;;;;;;;;;6236934;23;20035;-79
2022/09/22 04:24:28;;;;;;;0.15;0.15;;;;;;;;;;6239387;23;20027;-79
2022/09/22 04:26:54;;;;;;;0.00;0.00;;;;;;;;;;6238964;23;20027;-80
2022/09/22 04:29:23;;;;;;;0.00;0.00;;;;;;;;;;6240643;23;20024;-78
2022/09/22 04:31:49;;;;;;;2.00;1.75;;;;;;;;;;6242393;23;20546;-81
2022/09/22 04:34:15;;;;;;;0.45;0.45;;;;;;;;;;6240840;23;20015;-80
2022/09/22 04:36:42;;;;;;;0.10;0.10;;;;;;;;;;6241235;23;20008;-81
2022/09/22 04:39:08;;;;;;;0.38;0.38;;;;;;;;;;6239167;22;20008;-79
2022/09/22 04:41:35;;;;;;;1.92;1.65;;;;;;;;;;6240160;23;20091;-80
2022/09/22 04:44:01;;;;;;;4.47;0.45;;;;;;;;;;6241949;23;20112;-77
2022/09/22 04:46:28;;;;;;;4.90;3.92;;;;;;;;;;6242973;23;20027;-77
2022/09/22 04:48:54;;;;;;;0.70;0.65;;;;;;;;;;6242549;22;20058;-79
2022/09/22 04:51:21;;;;;;;0.63;0.38;;;;;;;;;;6241114;22;20538;-80
2022/09/22 04:53:47;;;;;;;1.05;1.02;;;;;;;;;;6243135;22;20490;-78
2022/09/22 04:56:13;;;;;;;0.15;0.15;;;;;;;;;;6239850;23;20399;-76
2022/09/22 04:58:40;;;;;;;0.25;0.22;;;;;;;;;;6238932;22;20416;-75
2022/09/22 05:01:06;;;;;;;0.10;0.10;;;;;;;;;;6238071;23;20082;-79
2022/09/22 05:03:36;;;;;;;0.30;0.13;;;;;;;;;;6238852;23;20030;-78
2022/09/22 05:06:04;;;;;;;0.00;0.00;;;;;;;;;;6238591;22;20080;-78
2022/09/22 05:08:30;;;;;;;0.75;0.75;;;;;;;;;;6236977;23;20008;-81
2022/09/22 05:10:56;;;;;;;1.20;1.10;;;;;;;;;;6238410;23;20079;-80
2022/09/22 05:13:24;;;;;;;1.83;1.73;;;;;;;;;;6239931;23;20004;-83
2022/09/22 05:15:50;;;;;;;0.82;0.73;;;;;;;;;;6240187;23;20079;-81
2022/09/22 05:18:17;;;;;;;1.95;0.20;;;;;;;;;;6240866;23;20067;-83
2022/09/22 05:20:44;;;;;;;0.10;0.03;;;;;;;;;;6241605;23;20018;-79
2022/09/22 05:23:11;;;;;;;0.98;0.45;;;;;;;;;;6243688;22;19996;-80
2022/09/22 05:25:38;;;;;;;4.18;2.00;;;;;;;;;;6240488;23;20373;-80
2022/09/22 05:28:04;;;;;;;6.13;5.68;;;;;;;;;;6241766;22;20373;-81
2022/09/22 05:30:30;;;;;;;1.95;1.42;;;;;;;;;;6242127;23;20000;-82
2022/09/22 05:32:57;;;;;;;0.00;0.00;;;;;;;;;;6240015;22;20544;-82
2022/09/22 05:35:24;;;;;;;1.55;1.45;;;;;;;;;;6240182;23;20008;-82
2022/09/22 05:37:51;;;;;;;9.13;3.97;;;;;;;;;;6240036;23;20008;-83
2022/09/22 05:40:18;;;;;;;1.98;1.88;;;;;;;;;;6237243;23;20079;-82
2022/09/22 05:42:48;;;;;;;2.13;2.00;;;;;;;;;;6237833;22;20328;-83
2022/09/22 05:45:15;;;;;;;3.88;2.15;;;;;;;;;;6235667;23;20066;-83
2022/09/22 05:47:42;;;;;;;5.60;4.13;;;;;;;;;;6236693;23;20008;-83
2022/09/22 05:50:09;;;;;;;5.25;3.25;;;;;;;;;;6241076;23;20027;-81
2022/09/22 05:52:43;;;;;;;5.07;4.70;;;;;;;;;;6242558;23;20570;-82
2022/09/22 05:55:10;;;;;;;8.43;4.88;;;;;;;;;;6241023;22;20019;-82
2022/09/22 05:57:36;;;;;;;0.17;0.17;;;;;;;;;;6245696;22;20031;-84
2022/09/22 06:00:07;;;;;;;0.05;0.05;;;;;;;;;;6245216;23;20433;-80
2022/09/22 06:02:33;;;;;;;0.63;0.63;;;;;;;;;;6244195;22;20000;-81
2022/09/22 06:05:00;;;;;;;0.93;0.88;;;;;;;;;;6246639;23;20486;-83
2022/09/22 06:07:26;;;;;;;21.30;2.35;;;;;;;;;;6245584;23;20008;-81
2022/09/22 06:09:53;;;;;;;0.75;0.57;;;;;;;;;;6245851;22;20091;-81
2022/09/22 06:12:19;;;;;;;0.55;0.55;;;;;;;;;;6243965;23;20096;-82
2022/09/22 06:14:46;;;;;;;0.32;0.32;;;;;;;;;;6244672;22;20006;-80
2022/09/22 06:17:12;;;;;;;0.65;0.45;;;;;;;;;;6242498;23;20000;-81
2022/09/22 06:19:39;;;;;;;0.00;0.00;;;;;;;;;;6244970;22;20007;-83
2022/09/22 06:22:09;;;;;;;5.63;5.10;;;;;;;;;;6244952;23;20012;-81
2022/09/22 06:24:36;;;;;;;1.25;1.20;;;;;;;;;;6245650;22;20058;-81
2022/09/22 06:27:02;;;;;;;0.90;0.90;;;;;;;;;;6243782;23;20058;-81
2022/09/22 06:29:29;;;;;;;0.17;0.17;;;;;;;;;;6241822;23;20209;-81
2022/09/22 06:31:55;;;;;;;0.30;0.28;;;;;;;;;;6246107;23;20008;-81
2022/09/22 06:34:22;;;;;;;0.98;0.98;;;;;;;;;;6245735;23;20075;-81
2022/09/22 06:36:49;;;;;;;0.00;0.00;;;;;;;;;;6245753;22;20008;-79
2022/09/22 06:39:15;;;;;;;1.17;0.55;;;;;;;;;;6246323;22;20004;-81
2022/09/22 06:41:43;;;;;;;0.10;0.10;;;;;;;;;;6244634;23;20036;-80
2022/09/22 06:44:11;;;;;;;0.00;0.00;;;;;;;;;;6243360;22;20554;-82
2022/09/22 06:46:40;;;;;;;0.30;0.17;;;;;;;;;;6245281;22;20003;-80
2022/09/22 06:49:07;;;;;;;0.00;0.00;;;;;;;;;;6245171;23;20004;-80
2022/09/22 06:51:35;;;;;;;2.00;1.85;;;;;;;;;;6244701;23;20042;-82
2022/09/22 06:54:03;;;;;;;0.00;0.00;;;;;;;;;;6244898;23;20008;-77
2022/09/22 06:56:29;;;;;;;0.38;0.38;;;;;;;;;;6243360;23;20038;-79
2022/09/22 06:58:56;;;;;;;0.00;0.00;;;;;;;;;;6243014;22;20030;-81
2022/09/22 07:01:23;;;;;;;3.30;1.10;;;;;;;;;;6241333;23;20015;-77
2022/09/22 07:03:50;;;;;;;3.03;1.33;;;;;;;;;;6246905;23;20008;-76
2022/09/22 07:06:20;;;;;;;0.40;0.40;;;;;;;;;;6243922;22;20000;-77
2022/09/22 07:08:47;;;;;;;1.08;0.80;;;;;;;;;;6244906;23;20100;-77
2022/09/22 07:11:16;;;;;;;0.10;0.10;;;;;;;;;;6247424;23;20008;-77
2022/09/22 07:13:44;;;;;;;0.85;0.85;;;;;;;;;;6248573;23;20004;-78
2022/09/22 07:16:15;;;;;;;9.75;3.40;;;;;;;;;;6247971;22;20084;-78
2022/09/22 07:18:45;;;;;;;0.00;0.00;;;;;;;;;;6248295;22;20012;-77
2022/09/22 07:21:18;;;;;;;0.10;0.10;;;;;;;;;;6243331;23;20322;-77
2022/09/22 07:23:45;;;;;;;0.43;0.43;;;;;;;;;;6243786;22;20001;-75
2022/09/22 07:26:12;;;;;;;0.00;0.00;;;;;;;;;;6242498;23;20005;-79
2022/09/22 07:28:39;;;;;;;14.20;6.20;;;;;;;;;;6246990;23;20069;-78
2022/09/22 07:31:10;;;;;;;0.03;0.03;;;;;;;;;;6245421;22;20425;-80
2022/09/22 07:33:37;;;;;;;0.00;0.00;;;;;;;;;;6243120;23;20092;-78
2022/09/22 07:36:08;;;;;;;1.08;0.57;;;;;;;;;;6241328;23;20079;-79
2022/09/22 07:38:38;;;;;;;0.00;0.00;;;;;;;;;;6240105;23;20004;-77
2022/09/22 07:41:14;;;;;;;0.05;0.05;;;;;;;;;;6243773;23;20094;-78
2022/09/22 07:43:41;;;;;;;0.40;0.40;;;;;;;;;;6242517;23;20004;-76
2022/09/22 07:46:08;;;;;;;2.40;2.30;;;;;;;;;;6243783;23;20027;-77
2022/09/22 07:48:36;;;;;;;0.10;0.10;;;;;;;;;;6244842;23;20581;-77
2022/09/22 07:51:12;;;;;;;0.00;0.00;;;;;;;;;;6245020;22;20030;-76
2022/09/22 07:53:39;;;;;;;0.08;0.08;;;;;;;;;;6243843;23;20077;-76
2022/09/22 07:56:09;;;;;;;1.67;1.58;;;;;;;;;;6243945;23;20075;-76
2022/09/22 07:58:35;;;;;;;0.55;0.55;;;;;;;;;;6244277;22;20088;-77
2022/09/22 08:01:06;;;;;;;1.23;1.13;;;;;;;;;;6245620;23;20081;-80
2022/09/22 08:03:36;;;;;;;0.00;0.00;;;;;;;;;;6249004;23;20004;-80
2022/09/22 08:06:09;;;;;;;0.00;0.00;;;;;;;;;;6247545;22;20071;-79
2022/09/22 08:08:36;;;;;;;0.00;0.00;;;;;;;;;;6244186;23;20011;-80
2022/09/22 08:11:07;;;;;;;0.10;0.10;;;;;;;;;;6242548;23;20011;-78
2022/09/22 08:13:33;;;;;;;0.00;0.00;;;;;;;;;;6243210;23;20420;-78
2022/09/22 08:16:02;;;;;;;0.08;0.08;;;;;;;;;;6243993;22;20022;-76
2022/09/22 08:18:29;;;;;;;0.45;0.45;;;;;;;;;;6243740;22;19996;-82
2022/09/22 08:20:56;;;;;;;0.00;0.00;;;;;;;;;;6240741;23;20119;-84
2022/09/22 08:23:22;;;;;;;1.08;1.02;;;;;;;;;;6243201;23;20076;-80
2022/09/22 08:25:49;;;;;;;6.32;0.82;;;;;;;;;;6242910;22;20080;-77
2022/09/22 08:28:16;;;;;;;0.00;0.00;;;;;;;;;;6245412;22;20004;-78
2022/09/22 08:30:46;;;;;;;0.10;0.10;;;;;;;;;;6242220;23;20012;-77
2022/09/22 08:33:12;;;;;;;0.00;0.00;;;;;;;;;;6244606;23;20007;-77
2022/09/22 08:35:50;;;;;;;0.05;0.05;;;;;;;;;;6242705;23;20154;-77
2022/09/22 08:38:17;;;;;;;0.00;0.00;;;;;;;;;;6243861;22;20039;-78
2022/09/22 08:40:49;;;;;;;0.00;0.00;;;;;;;;;;6241295;22;20111;-76
2022/09/22 08:43:15;;;;;;;0.20;0.20;;;;;;;;;;6243240;22;20004;-77
2022/09/22 08:45:43;;;;;;;1.05;0.77;;;;;;;;;;6241560;23;19996;-76
2022/09/22 08:54:16;;;;;;;0.30;0.30;;;;;;;;;;6239733;23;20018;-77
2022/09/22 08:56:46;;;;;;;0.85;0.75;;;;;;;;;;6243628;23;20475;-77
2022/09/22 08:59:21;;;;;;;3.22;1.00;;;;;;;;;;6241803;22;20023;-78
2022/09/22 09:01:51;;;;;;;0.00;0.00;;;;;;;;;;6242414;22;20016;-78
2022/09/22 09:04:36;;;;;;;1.55;0.52;;;;;;;;;;6241113;22;20024;-76
2022/09/22 09:07:15;;;;;;;2.20;1.25;;;;;;;;;;6243154;23;20008;-79
2022/09/22 09:10:00;;;;;;;0.00;0.00;;;;;;;;;;6250147;22;20090;-83
2022/09/22 09:12:39;;;;;;;0.00;0.00;;;;;;;;;;6242480;23;20444;-82
2022/09/22 09:15:08;;;;;;;0.10;0.08;;;;;;;;;;6242505;22;20011;-81
2022/09/22 09:17:37;;;;;;;0.00;0.00;;;;;;;;;;6242528;23;20027;-76
2022/09/22 09:20:15;;;;;;;2.72;0.85;;;;;;;;;;6239647;23;20008;-80
2022/09/22 09:22:45;;;;;;;0.00;0.00;;;;;;;;;;6242602;22;20004;-77
2022/09/22 09:25:26;;;;;;;0.00;0.00;;;;;;;;;;6237751;23;20100;-80
2022/09/22 09:27:55;;;;;;;2.90;2.65;;;;;;;;;;6237080;23;20083;-76
2022/09/22 09:30:22;;;;;;;0.43;0.38;;;;;;;;;;6243706;22;20039;-80
2022/09/22 09:32:48;;;;;;;0.00;0.00;;;;;;;;;;6246698;23;20000;-82
2022/09/22 09:35:17;;;;;;;1.20;1.20;;;;;;;;;;6245793;23;20012;-79
2022/09/22 09:37:45;;;;;;;0.00;0.00;;;;;;;;;;6247495;23;20012;-82
2022/09/22 09:40:17;;;;;;;2.30;1.67;;;;;;;;;;6248156;23;20012;-82
2022/09/22 09:42:46;;;;;;;0.00;0.00;;;;;;;;;;6246543;23;20007;-80
2022/09/22 09:45:14;;;;;;;0.00;0.00;;;;;;;;;;6246165;22;20007;-81
2022/09/22 09:47:43;;;;;;;0.00;0.00;;;;;;;;;;6244810;23;20011;-84
2022/09/22 09:50:10;;;;;;;0.43;0.43;;;;;;;;;;6247327;22;20008;-84
2022/09/22 09:52:38;;;;;;;0.32;0.30;;;;;;;;;;6249364;22;20004;-85
2022/09/22 09:55:18;;;;;;;0.80;0.80;;;;;;;;;;6246387;22;20000;-83
2022/09/22 09:58:03;;;;;;;0.00;0.00;;;;;;;;;;6245296;22;20096;-85
2022/09/22 10:00:30;;;;;;;6.75;3.25;;;;;;;;;;6246446;22;20016;-85
2022/09/22 10:02:59;;;;;;;0.10;0.05;;;;;;;;;;6247440;22;20001;-84
2022/09/22 10:05:26;;;;;;;0.20;0.15;;;;;;;;;;6245808;23;19996;-82
2022/09/22 10:08:01;;;;;;;0.17;0.17;;;;;;;;;;6242652;23;20004;-82
2022/09/22 10:10:41;;;;;;;0.00;0.00;;;;;;;;;;6244450;23;20038;-81
2022/09/22 10:13:07;;;;;;;0.00;0.00;;;;;;;;;;6242067;23;20423;-81
2022/09/22 10:15:35;;;;;;;0.00;0.00;;;;;;;;;;6242303;23;20439;-82
2022/09/22 10:18:01;;;;;;;0.00;0.00;;;;;;;;;;6241862;23;20087;-83
2022/09/22 10:20:30;;;;;;;0.00;0.00;;;;;;;;;;6242257;23;20038;-83
2022/09/22 10:23:18;;;;;;;0.45;0.45;;;;;;;;;;6244085;23;20395;-84
2022/09/22 10:25:44;;;;;;;0.00;0.00;;;;;;;;;;6242000;22;20069;-87
2022/09/22 10:28:14;;;;;;;0.80;0.80;;;;;;;;;;6243526;23;20481;-82
2022/09/22 10:30:50;;;;;;;0.00;0.00;;;29.40;35.70;;;;;;6245001;23;20015;-91
2022/09/22 10:33:17;;;;;;;2.60;0.63;;;29.50;45.10;;;;;;6241843;23;20004;-81
2022/09/22 10:35:47;;;;;;;0.17;0.17;;;;;;;;;;6240675;23;20185;-76
2022/09/22 10:38:25;;;;;;;0.00;0.00;;;;;;;;;;6244262;22;20004;-76
2022/09/22 10:41:06;;;;;;;0.00;0.00;;;;;;;;;;6243494;23;20332;-77
2022/09/22 10:43:40;;;;;;;0.63;0.63;;;;;;;;;;6245160;23;20007;-76
2022/09/22 10:46:12;;;;;;;0.00;0.00;;;;;;;;;;6241235;22;20104;-80
2022/09/22 10:48:48;;;;;;;0.00;0.00;;;;;;;;;;6241267;23;20505;-83
2022/09/22 10:51:29;;;;;;;0.00;0.00;;;;;;;;;;6242870;23;20011;-82
2022/09/22 10:53:55;;;;;;;0.00;0.00;;;;;;;;;;6242673;22;20087;-80
2022/09/22 10:56:29;;;;;;;0.00;0.00;;;;;;;;;;6244552;23;20051;-83
2022/09/22 10:58:59;;;;;;;0.00;0.00;;;;;;;;;;6243083;22;20030;-78
2022/09/22 11:01:34;;;;;;;0.00;0.00;;;;;;;;;;6243475;22;20011;-81
2022/09/22 11:04:08;;;;;;;0.00;0.00;;;;;;;;;;6243225;23;20476;-75
2022/09/22 11:12:27;;;;;;;0.15;0.15;;;;;;;;;;6245840;23;20088;-78
2022/09/22 11:14:57;;;;;;;0.00;0.00;;;;;;;;;;6240850;23;20097;-77
2022/09/22 11:17:39;;;;;;;0.00;0.00;;;;;;;;;;6243582;22;20000;-74
2022/09/22 11:20:12;;;;;;;0.00;0.00;;;;;;;;;;6243372;23;20095;-74
2022/09/22 11:22:51;;;;;;;0.00;0.00;;;;;;;;;;6243185;23;20004;-75
2022/09/22 11:25:30;;;;;;;0.00;0.00;;;;;;;;;;6241315;23;20075;-75
2022/09/22 11:27:56;;;;;;;0.00;0.00;;;;;;;;;;6238180;22;20103;-75
2022/09/22 11:30:23;;;;;;;0.00;0.00;;;;;;;;;;6238379;23;20579;-75
2022/09/22 11:32:53;;;;;;;0.00;0.00;;;;;;;;;;6242648;22;20004;-74
2022/09/22 11:35:25;;;;;;;0.00;0.00;;;;;;;;;;6242883;22;19996;-74
2022/09/22 11:38:17;;;;;;;0.00;0.00;;;;;;;;;;6244038;23;20067;-74
2022/09/22 11:40:43;;;;;;;0.00;0.00;;;;;;;;;;6236957;23;20083;-71
2022/09/22 11:43:33;;;;;;;0.00;0.00;;;;;;;;;;6241255;23;20321;-73
2022/09/22 11:46:00;;;;;;;0.00;0.00;;;;;;;;;;6241469;23;20053;-74
2022/09/22 11:48:29;;;;;;;0.00;0.00;;;;;;;;;;6244512;23;20000;-73
2022/09/22 11:51:07;;;;;;;0.00;0.00;;;;;;;;;;6243366;23;20035;-73
2022/09/22 11:53:37;;;;;;;0.05;0.05;;;;;;;;;;6242711;23;20081;-73
2022/09/22 11:56:05;;;;;;;0.00;0.00;;;;;;;;;;6242997;23;20009;-73
2022/09/22 11:58:33;;;;;;;0.00;0.00;;;;;;;;;;6246719;22;20024;-74
2022/09/22 12:01:03;;;;;;;0.00;0.00;;;;;;;;;;6244873;23;19996;-72
2022/09/22 12:03:36;;;;;;;0.03;0.03;;;;;;;;;;6244811;22;20011;-75
2022/09/22 12:06:04;;;;;;;0.00;0.00;;;;;;;;;;6243971;22;20004;-75
2022/09/22 12:08:47;;;;;;;0.00;0.00;;;;;;;;;;6244468;22;20350;-72
2022/09/22 12:11:15;;;;;;;0.00;0.00;;;;;;;;;;6243295;23;20505;-74
2022/09/22 12:13:43;;;;;;;0.20;0.20;;;;;;;;;;6246057;23;20011;-72
2022/09/22 12:16:17;;;;;;;0.32;0.32;;;;;;;;;;6243613;23;20087;-73
2022/09/22 12:18:47;;;;;;;0.10;0.10;;;;;;;;;;6245048;22;20428;-75
2022/09/22 12:21:29;;;;;;;0.00;0.00;;;;;;;;;;6241709;23;20687;-74
2022/09/22 12:23:56;;;;;;;0.00;0.00;;;;;;;;;;6244778;23;20007;-75
2022/09/22 12:26:30;;;;;;;0.00;0.00;;;;;;;;;;6242212;23;20000;-72
2022/09/22 12:28:57;;;;;;;0.10;0.10;;;;;;;;;;6245219;22;20020;-72
2022/09/22 12:31:33;;;;;;;0.00;0.00;;;;;;;;;;6243314;23;20012;-73
2022/09/22 12:34:01;;;;;;;0.00;0.00;;;;;;;;;;6245235;22;20031;-73
2022/09/22 12:36:29;;;;;;;0.00;0.00;;;;;;;;;;6240152;23;20079;-73
2022/09/22 12:39:07;;;;;;;0.00;0.00;;;;;;;;;;6243864;23;20372;-74
2022/09/22 12:41:46;;;;;;;0.00;0.00;;;;;;;;;;6242728;23;20018;-74
2022/09/22 12:44:15;;;;;;;0.00;0.00;;;;;;;;;;6242184;23;20126;-73
2022/09/22 12:46:42;;;;;;;0.00;0.00;;;;;;;;;;6244237;22;20075;-75
2022/09/22 12:49:09;;;;;;;0.00;0.00;;;;;;;;;;6241844;23;20027;-74
2022/09/22 12:51:35;;;;;;;0.05;0.05;;;;;;;;;;6241901;23;20011;-73
2022/09/22 12:54:20;;;;;;;0.05;0.05;;;;;;;;;;6240798;23;20421;-73
2022/09/22 12:56:54;;;;;;;0.00;0.00;;;;;;;;;;6242185;23;20099;-75
2022/09/22 12:59:38;;;;;;;0.00;0.00;;;;;;;;;;6241500;22;20155;-73
2022/09/22 13:02:14;;;;;;;0.00;0.00;;;;;;;;;;6243221;22;20004;-72
2022/09/22 13:04:54;;;;;;;0.00;0.00;;;;;;;;;;6242045;22;20016;-75
2022/09/22 13:07:33;;;;;;;7.43;5.47;;;;;;;;;;6244240;22;20008;-73
2022/09/22 13:10:31;;;;;;;0.00;0.00;;;;;;;;;;6243475;23;20095;-73
2022/09/22 13:13:04;;;;;;;0.00;0.00;;;;;;;;;;6178757;22;20128;-74
2022/09/22 13:15:47;;;;;;;1.38;1.27;;;;;;;;;;6243279;23;20138;-74
2022/09/22 13:18:33;;;;;;;0.00;0.00;;;;;;;;;;6244914;22;20027;-74
2022/09/22 13:21:18;;;;;;;0.00;0.00;;;;;;;;;;6242371;23;20217;-74
2022/09/22 13:23:44;;;;;;;0.00;0.00;;;;;;;;;;6243670;23;20305;-73
2022/09/22 13:26:12;;;;;;;1.88;1.73;;;;;;;;;;6240524;23;20015;-74
2022/09/22 13:28:39;;;;;;;0.00;0.00;;;;;;;;;;6241573;23;20064;-73
2022/09/22 13:31:16;;;;;;;0.00;0.00;;;;;;;;;;6243942;22;20056;-74
2022/09/22 13:33:42;;;;;;;0.00;0.00;;;;;;;;;;6243865;23;20444;-73
2022/09/22 13:36:13;;;;;;;34.85;15.30;;;;;;;;;;6239587;23;20015;-73
2022/09/22 13:38:41;;;;;;;0.00;0.00;;;;;;;;;;6243852;23;20000;-73
2022/09/22 13:41:17;;;;;;;0.00;0.00;;;;;;;;;;6242827;22;20008;-74
2022/09/22 13:43:47;;;;;;;0.00;0.00;;;;;;;;;;6242438;23;20339;-72
2022/09/22 13:46:45;;;;;;;0.00;0.00;;;;;;;;;;6241626;22;20364;-72
2022/09/22 13:49:32;;;;;;;0.00;0.00;;;;;;;;;;6159814;23;20015;-73
2022/09/22 13:52:00;;;;;;;0.00;0.00;;;;;;;;;;6223190;23;20014;-73
2022/09/22 13:54:28;;;;;;;0.00;0.00;;;;;;;;;;6243008;22;20000;-73
2022/09/22 13:56:56;;;;;;;0.00;0.00;;;;;;;;;;6244520;22;20341;-73
2022/09/22 13:59:23;;;;;;;0.00;0.00;;;;;;;;;;6242181;22;20016;-75
2022/09/22 14:01:50;;;;;;;0.00;0.00;;;;;;;;;;6243140;23;20009;-74
2022/09/22 14:04:23;;;;;;;0.00;0.00;;;;;;;;;;6240297;23;20019;-74
2022/09/22 14:06:52;;;;;;;0.00;0.00;;;;;;;;;;6242177;23;20079;-74
2022/09/22 14:09:18;;;;;;;0.47;0.47;;;;;;;;;;6240690;23;20016;-74
2022/09/22 14:11:45;;;;;;;0.00;0.00;;;;;;;;;;6242178;23;20340;-74
2022/09/22 14:14:22;;;;;;;0.00;0.00;;;;;;;;;;6243596;22;20004;-73
2022/09/22 14:16:50;;;;;;;1.55;1.35;;;;;;;;;;6243160;23;20328;-73
2022/09/22 14:19:25;;;;;;;3.05;2.90;;;;;;;;;;6246610;23;20082;-73
2022/09/22 14:22:12;;;;;;;0.00;0.00;;;;;;;;;;6243115;23;20004;-72
2022/09/22 14:24:42;;;;;;;0.00;0.00;;;;;;;;;;6244286;23;20004;-73
2022/09/22 14:27:17;;;;;;;0.00;0.00;;;;;;;;;;6246325;23;20000;-73
2022/09/22 14:29:46;;;;;;;0.00;0.00;;;;;;;;;;6246520;22;20050;-72
2022/09/22 14:32:19;;;;;;;0.00;0.00;;;;;;;;;;6244095;23;20012;-74
2022/09/22 14:34:47;;;;;;;0.00;0.00;;;;;;;;;;6246603;22;20004;-73
2022/09/22 14:37:16;;;;;;;8.93;3.58;;;;;;;;;;6246311;22;20003;-74
2022/09/22 14:39:43;;;;;;;0.00;0.00;;;;;;;;;;6244123;22;20031;-73
2022/09/22 14:42:17;;;;;;;0.20;0.20;;;;;;;;;;6245370;23;20043;-74
2022/09/22 14:44:45;;;;;;;0.55;0.40;;;;;;;;;;6245425;23;20022;-73
2022/09/22 14:47:28;;;;;;;2.47;2.28;;;;;;;;;;6242265;23;20050;-73
2022/09/22 14:50:11;;;;;;;1.10;0.75;;;;;;;;;;6243989;23;20062;-73
2022/09/22 14:52:45;;;;;;;2.97;1.30;;;;;;;;;;6245858;22;20357;-73
2022/09/22 14:55:12;;;;;;;6.22;3.17;;;;;;;;;;6245668;22;19996;-73
2022/09/22 14:57:42;;;;;;;4.13;1.45;;;;;;;;;;6242630;22;20013;-74
2022/09/22 15:02:59;;;;;;;0.60;0.60;;;;;;;;;;6246179;23;20019;-74
2022/09/22 15:05:26;;;;;;;0.30;0.30;;;;;;;;;;6246093;23;19996;-73
2022/09/22 15:07:53;;;;;;;2.17;1.30;;;;;;;;;;6244244;23;20010;-73
2022/09/22 15:10:23;;;;;;;0.00;0.00;;;;;;;;;;6246031;23;20028;-73
2022/09/22 15:12:50;;;;;;;1.02;0.98;;;;;;;;;;6245485;22;20000;-73
2022/09/22 15:15:21;;;;;;;0.00;0.00;;;;;;;;;;6243963;23;20734;-73